Green Ice — C6SO4 — position and weather

sailwx.info

Track history (hours):
 
Tides and Currents Weather Stations Pressure Air Temp Water Temp Dewpoint Dewpoint Depression Visibility Wind Speed Wind Dir Waves Ship Positions

Green Ice

Last reported at 2016-Feb-07 17:33 UTC. Time now 2016-Feb-08 08:10 UTC.
Position N 59°18' E 004°40'.

Length 86 m; draft 4.6 m.

Type: Other ship. MMSI: 311411000.

Date/timePositionNaut miles runAvg speedWind from/ knotsBaromVisibWave heightAir tempDewpointWater temp
2016-Feb-07 17:33N 59°18' E 004°40'1313.0
2016-Feb-07 16:34N 59°06' E 004°52'1313.0
2016-Feb-07 15:33N 58°55' E 005°05'1313.0
2016-Feb-07 14:33N 58°44' E 005°18'1312.7
2016-Feb-07 13:33N 58°33' E 005°30'1212.6
2016-Feb-07 12:33N 58°23' E 005°45'1313.0
2016-Feb-07 11:33N 58°14' E 006°04'1312.7
2016-Feb-07 10:33N 58°06' E 006°22'1211.7
2016-Feb-07 09:33N 57°60' E 006°40'1111.2
2016-Feb-07 08:33N 57°55' E 006°59'11511.4
2016-Feb-06 22:27N 57°50' E 010°35'910.3
2016-Feb-06 21:33N 57°42' E 010°46'4 3.5
2016-Feb-06 20:26N 57°43' E 010°38'1112.9
2016-Feb-06 19:33N 57°40' E 010°59'1413.8
2016-Feb-06 18:33N 57°32' E 011°20'1313.4
2016-Feb-06 17:34N 57°20' E 011°31'1413.8
2016-Feb-06 16:33N 57°07' E 011°41'1313.5
2016-Feb-06 15:33N 56°54' E 011°49'1313.2
2016-Feb-06 14:33N 56°43' E 012°01'1413.6
2016-Feb-06 13:33N 56°31' E 012°12'1914.0
2016-Feb-06 12:11N 56°13' E 012°27'1015.3
2016-Feb-06 11:33N 56°05' E 012°36'1514.7
2016-Feb-06 10:33N 55°51' E 012°43'1414.4
2016-Feb-06 09:33N 55°37' E 012°42'1413.6
2016-Feb-06 08:33N 55°23' E 012°41'1211.9
2016-Feb-06 07:33N 55°15' E 012°57'1613.9
2016-Feb-06 06:22N 55°15' E 013°26'1214.0
2016-Feb-06 05:33N 55°14' E 013°46'1413.7
2016-Feb-06 04:33N 55°14' E 014°10'1313.0
2016-Feb-06 03:33N 55°21' E 014°28'1312.9
2016-Feb-06 02:33N 55°27' E 014°49'1313.4
2016-Feb-06 01:33N 55°28' E 015°12'  
2016-Feb-02 11:33N 55°27' E 015°45'1312.8
2016-Feb-02 10:33N 55°26' E 015°23'1312.6
2016-Feb-02 09:33N 55°25' E 015°00'1212.4
2016-Feb-02 08:33N 55°23' E 014°39'1212.4
2016-Feb-02 07:33N 55°13' E 014°24'1110.6
2016-Feb-02 06:33N 55°10' E 014°07'3912.8
2016-Feb-02 03:33N 55°15' E 012°60'1212.4
2016-Feb-02 02:33N 55°18' E 012°39'1211.6
2016-Feb-02 01:33N 55°29' E 012°41'1212.3
2016-Feb-02 00:34N 55°42' E 012°41'1312.7
2016-Feb-01 23:34N 55°54' E 012°39'1211.9
2016-Feb-01 22:33N 56°06' E 012°33'1313.0
2016-Feb-01 21:33N 56°13' E 012°14'3611.8
2016-Feb-01 18:28N 56°48' E 011°51'1112.6
2016-Feb-01 17:33N 56°58' E 011°45'2512.5
2016-Feb-01 15:33N 57°22' E 011°26'1211.9
2016-Feb-01 14:33N 57°32' E 011°15'1211.7
2016-Feb-01 13:32N 57°40' E 010°59'1111.6
2016-Feb-01 12:33N 57°48' E 010°43'11713.0
2016-Feb-01 03:33N 57°54' E 007°05'1313.1
2016-Feb-01 02:34N 57°59' E 006°42'1313.3
2016-Feb-01 01:33N 58°07' E 006°21'1413.6
2016-Feb-01 00:32N 58°16' E 006°03'1313.1
2016-Jan-31 23:33N 58°25' E 005°45'1312.9
2016-Jan-31 22:33N 58°36' E 005°31'1211.8
2016-Jan-31 21:33N 58°47' E 005°23'1110.9
2016-Jan-31 20:33N 58°57' E 005°33'1111.2
2016-Jan-31 19:33N 59°07' E 005°25'5 4.8
2016-Jan-31 18:33N 59°09' E 005°16'0 0.0
2016-Jan-31 17:33N 59°09' E 005°16'0 0.0
2016-Jan-31 16:33N 59°09' E 005°16'9 9.0
2016-Jan-31 15:33N 59°18' E 005°20'16 0.4
2016-Jan-29 17:29N 59°33' E 005°13'1010.4
2016-Jan-29 16:33N 59°41' E 005°24'1210.7
2016-Jan-29 15:28N 59°52' E 005°32'  
Track history (hours):
 
Tides and Currents Weather Stations Pressure Air Temp Water Temp Dewpoint Dewpoint Depression Visibility Wind Speed Wind Dir Waves Ship Positions

Green Ice

Last reported at 2016-Feb-07 17:33 UTC. Time now 2016-Feb-08 08:10 UTC.
Position N 59°18' E 004°40'.

Length 86 m; draft 4.6 m.

Type: Other ship. MMSI: 311411000.

Date/timePositionNaut miles runAvg speedWind from/ knotsBaromVisibWave heightAir tempDewpointWater temp
2016-Feb-07 17:33N 59°18' E 004°40'1313.0
2016-Feb-07 16:34N 59°06' E 004°52'1313.0
2016-Feb-07 15:33N 58°55' E 005°05'1313.0
2016-Feb-07 14:33N 58°44' E 005°18'1312.7
2016-Feb-07 13:33N 58°33' E 005°30'1212.6
2016-Feb-07 12:33N 58°23' E 005°45'1313.0
2016-Feb-07 11:33N 58°14' E 006°04'1312.7
2016-Feb-07 10:33N 58°06' E 006°22'1211.7
2016-Feb-07 09:33N 57°60' E 006°40'1111.2
2016-Feb-07 08:33N 57°55' E 006°59'11511.4
2016-Feb-06 22:27N 57°50' E 010°35'910.3
2016-Feb-06 21:33N 57°42' E 010°46'4 3.5
2016-Feb-06 20:26N 57°43' E 010°38'1112.9
2016-Feb-06 19:33N 57°40' E 010°59'1413.8
2016-Feb-06 18:33N 57°32' E 011°20'1313.4
2016-Feb-06 17:34N 57°20' E 011°31'1413.8
2016-Feb-06 16:33N 57°07' E 011°41'1313.5
2016-Feb-06 15:33N 56°54' E 011°49'1313.2
2016-Feb-06 14:33N 56°43' E 012°01'1413.6
2016-Feb-06 13:33N 56°31' E 012°12'1914.0
2016-Feb-06 12:11N 56°13' E 012°27'1015.3
2016-Feb-06 11:33N 56°05' E 012°36'1514.7
2016-Feb-06 10:33N 55°51' E 012°43'1414.4
2016-Feb-06 09:33N 55°37' E 012°42'1413.6
2016-Feb-06 08:33N 55°23' E 012°41'1211.9
2016-Feb-06 07:33N 55°15' E 012°57'1613.9
2016-Feb-06 06:22N 55°15' E 013°26'1214.0
2016-Feb-06 05:33N 55°14' E 013°46'1413.7
2016-Feb-06 04:33N 55°14' E 014°10'1313.0
2016-Feb-06 03:33N 55°21' E 014°28'1312.9
2016-Feb-06 02:33N 55°27' E 014°49'1313.4
2016-Feb-06 01:33N 55°28' E 015°12'  
2016-Feb-02 11:33N 55°27' E 015°45'1312.8
2016-Feb-02 10:33N 55°26' E 015°23'1312.6
2016-Feb-02 09:33N 55°25' E 015°00'1212.4
2016-Feb-02 08:33N 55°23' E 014°39'1212.4
2016-Feb-02 07:33N 55°13' E 014°24'1110.6
2016-Feb-02 06:33N 55°10' E 014°07'3912.8
2016-Feb-02 03:33N 55°15' E 012°60'1212.4
2016-Feb-02 02:33N 55°18' E 012°39'1211.6
2016-Feb-02 01:33N 55°29' E 012°41'1212.3
2016-Feb-02 00:34N 55°42' E 012°41'1312.7
2016-Feb-01 23:34N 55°54' E 012°39'1211.9
2016-Feb-01 22:33N 56°06' E 012°33'1313.0
2016-Feb-01 21:33N 56°13' E 012°14'3611.8
2016-Feb-01 18:28N 56°48' E 011°51'1112.6
2016-Feb-01 17:33N 56°58' E 011°45'2512.5
2016-Feb-01 15:33N 57°22' E 011°26'1211.9
2016-Feb-01 14:33N 57°32' E 011°15'1211.7
2016-Feb-01 13:32N 57°40' E 010°59'1111.6
2016-Feb-01 12:33N 57°48' E 010°43'11713.0
2016-Feb-01 03:33N 57°54' E 007°05'1313.1
2016-Feb-01 02:34N 57°59' E 006°42'1313.3
2016-Feb-01 01:33N 58°07' E 006°21'1413.6
2016-Feb-01 00:32N 58°16' E 006°03'1313.1
2016-Jan-31 23:33N 58°25' E 005°45'1312.9
2016-Jan-31 22:33N 58°36' E 005°31'1211.8
2016-Jan-31 21:33N 58°47' E 005°23'1110.9
2016-Jan-31 20:33N 58°57' E 005°33'1111.2
2016-Jan-31 19:33N 59°07' E 005°25'5 4.8
2016-Jan-31 18:33N 59°09' E 005°16'0 0.0
2016-Jan-31 17:33N 59°09' E 005°16'0 0.0
2016-Jan-31 16:33N 59°09' E 005°16'9 9.0
2016-Jan-31 15:33N 59°18' E 005°20'16 0.4
2016-Jan-29 17:29N 59°33' E 005°13'1010.4
2016-Jan-29 16:33N 59°41' E 005°24'1210.7
2016-Jan-29 15:28N 59°52' E 005°32'  

Dump ship's entire track history